Time;durP1;ratioP1;P1;durP2;ratioP2;P2;SDS_P1;SDS_P2;PMS_P1;PMS_P2;Temp;Humidity;BMP_temperature;BMP_pressure;BME280_temperature;BME280_humidity;BME280_pressure;Samples;Min_cycle;Max_cycle;Signal;HPM_P1;HPM_P2
2023/02/24 00:02:13;;;;;;;11.25;6.63;;;;;;;;;;6235283;23;20178;-62
2023/02/24 00:04:54;;;;;;;12.82;7.40;;;;;;;;;;6235363;23;20020;-62
2023/02/24 00:07:21;;;;;;;12.00;6.93;;;;;;;;;;6236127;23;20020;-62
2023/02/24 00:09:56;;;;;;;12.57;7.57;;;;;;;;;;6235646;23;20107;-61
2023/02/24 00:12:23;;;;;;;10.98;6.80;;;;;;;;;;6236585;23;20107;-62
2023/02/24 00:14:50;;;;;;;14.43;7.70;;;;;;;;;;6235681;23;20537;-75
2023/02/24 00:17:26;;;;;;;11.38;6.07;;;;;;;;;;6235177;23;20507;-56
2023/02/24 00:19:53;;;;;;;14.07;7.40;;;;;;;;;;6235901;23;20403;-61
2023/02/24 00:22:21;;;;;;;11.45;6.60;;;;;;;;;;6236284;23;20053;-60
2023/02/24 00:24:54;;;;;;;9.48;4.50;;;;;;;;;;6234578;23;20091;-61
2023/02/24 00:27:22;;;;;;;6.35;4.28;;;;;;;;;;6236172;23;20095;-61
2023/02/24 00:29:56;;;;;;;8.57;4.78;;;;;;;;;;6235100;23;20024;-60
2023/02/24 00:32:23;;;;;;;6.53;4.50;;;;;;;;;;6235648;23;20032;-61
2023/02/24 00:34:57;;;;;;;9.70;3.53;;;;;;;;;;6236231;23;20024;-73
2023/02/24 00:37:24;;;;;;;8.15;3.47;;;;;;;;;;6236600;23;20023;-73
2023/02/24 00:39:57;;;;;;;9.73;3.45;;;;;;;;;;6235977;23;20410;-73
2023/02/24 00:42:31;;;;;;;6.18;3.10;;;;;;;;;;6237296;23;20102;-73
2023/02/24 00:44:58;;;;;;;6.78;3.50;;;;;;;;;;6235590;23;20017;-71
2023/02/24 00:47:32;;;;;;;9.70;3.30;;;;;;;;;;6236184;23;20095;-49
2023/02/24 00:49:59;;;;;;;7.97;3.72;;;;;;;;;;6235713;23;20034;-53
2023/02/24 00:52:35;;;;;;;4.28;2.92;;;;;;;;;;6236412;23;20022;-52
2023/02/24 00:55:12;;;;;;;9.10;3.35;;;;;;;;;;6235765;23;20055;-50
2023/02/24 00:57:49;;;;;;;8.10;3.80;;;;;;;;;;6234976;23;20023;-51
2023/02/24 01:00:18;;;;;;;5.05;3.40;;;;;;;;;;6235777;23;20020;-49
2023/02/24 01:02:46;;;;;;;6.47;3.50;;;;;;;;;;6234739;23;20035;-59
2023/02/24 01:05:32;;;;;;;7.03;2.97;;;;;;;;;;6233957;23;20022;-58
2023/02/24 01:08:06;;;;;;;3.25;2.58;;;;;;;;;;6236872;23;20020;-58
2023/02/24 01:11:35;;;;;;;6.47;3.53;;;;;;;;;;6235670;23;20020;-58
2023/02/24 01:13:28;;;;;;;11.55;2.97;;;;;;;;;;6234924;23;20027;-74
2023/02/24 01:16:01;;;;;;;7.97;3.15;;;;;;;;;;6234364;23;20016;-50
2023/02/24 01:18:29;;;;;;;9.70;3.88;;;;;;;;;;6236896;23;20557;-49
2023/02/24 01:21:04;;;;;;;6.55;3.40;;;;;;;;;;6234355;23;20074;-49
2023/02/24 01:23:31;;;;;;;7.28;3.30;;;;;;;;;;6236273;23;20107;-49
2023/02/24 01:25:58;;;;;;;6.30;2.72;;;;;;;;;;6236419;23;20024;-52
2023/02/24 01:28:33;;;;;;;11.18;3.65;;;;;;;;;;6236565;23;20032;-49
2023/02/24 01:31:01;;;;;;;10.23;2.95;;;;;;;;;;6235715;23;20284;-72
2023/02/24 01:33:38;;;;;;;11.60;3.20;;;;;;;;;;6236558;23;20062;-72
2023/02/24 01:36:25;;;;;;;12.18;3.92;;;;;;;;;;6234835;23;20055;-73
2023/02/24 01:39:00;;;;;;;10.80;3.53;;;;;;;;;;6236779;23;20027;-72
2023/02/24 01:41:33;;;;;;;9.25;3.65;;;;;;;;;;6234564;23;20032;-50
2023/02/24 01:44:08;;;;;;;8.05;3.78;;;;;;;;;;6236417;23;20070;-72
2023/02/24 01:46:43;;;;;;;10.15;3.85;;;;;;;;;;6235463;23;20016;-73
2023/02/24 01:49:13;;;;;;;14.05;4.53;;;;;;;;;;6238153;23;20323;-73
2023/02/24 01:51:45;;;;;;;8.77;3.78;;;;;;;;;;6237497;23;20344;-72
2023/02/24 01:54:20;;;;;;;14.40;4.90;;;;;;;;;;6238215;23;20444;-72
2023/02/24 01:56:49;;;;;;;15.25;4.57;;;;;;;;;;6236036;23;20020;-72
2023/02/24 01:59:26;;;;;;;17.10;5.70;;;;;;;;;;6238354;23;20554;-58
2023/02/24 02:01:57;;;;;;;14.65;5.32;;;;;;;;;;6236484;23;20487;-58
2023/02/24 02:04:46;;;;;;;23.08;6.88;;;;;;;;;;6236593;23;20385;-59
2023/02/24 02:07:22;;;;;;;20.23;5.88;;;;;;;;;;6238165;23;20062;-59
2023/02/24 02:10:05;;;;;;;19.50;4.93;;;;;;;;;;6237091;23;20024;-62
2023/02/24 02:12:35;;;;;;;13.30;5.00;;;;;;;;;;6237680;23;20517;-71
2023/02/24 02:15:11;;;;;;;;;;;;;;;;;;6238515;23;20082;-72
2023/02/24 02:17:42;;;;;;;15.15;4.47;;;;;;;;;;6237427;23;19990;-71
2023/02/24 02:20:26;;;;;;;18.67;5.40;;;;;;;;;;6234552;23;20024;-71
2023/02/24 02:23:29;;;;;;;14.63;4.90;;;;;;;;;;6236964;23;20107;-71
2023/02/24 02:26:09;;;;;;;24.33;5.32;;;;;;;;;;6143738;23;20380;-72
2023/02/24 02:28:36;;;;;;;21.55;5.90;;;;;;;;;;6228681;23;20024;-62
2023/02/24 02:31:29;;;;;;;15.35;4.75;;;;;;;;;;6236466;23;20020;-62
2023/02/24 02:34:15;;;;;;;24.58;5.53;;;;;;;;;;6236957;23;20028;-62
2023/02/24 02:36:57;;;;;;;21.38;5.80;;;;;;;;;;6236609;23;20020;-53
2023/02/24 02:39:47;;;;;;;27.45;5.60;;;;;;;;;;6238153;23;20126;-62
2023/02/24 02:42:39;;;;;;;24.02;4.95;;;;;;;;;;6236103;23;20034;-73
2023/02/24 02:45:12;;;;;;;22.17;5.40;;;;;;;;;;6237862;23;20032;-73
2023/02/24 02:47:57;;;;;;;14.60;4.47;;;;;;;;;;6237223;23;20095;-74
2023/02/24 02:50:26;;;;;;;21.73;4.75;;;;;;;;;;6233641;23;20629;-73
2023/02/24 02:53:12;;;;;;;17.80;4.40;;;;;;;;;;6237983;23;20434;-74
2023/02/24 02:56:00;;;;;;;18.30;5.35;;;;;;;;;;6238152;23;20144;-73
2023/02/24 02:58:30;;;;;;;23.58;4.95;;;;;;;;;;6236994;23;20023;-73
2023/02/24 03:01:05;;;;;;;16.40;4.65;;;;;;;;;;6235112;23;20099;-73
2023/02/24 03:03:41;;;;;;;13.93;4.45;;;;;;;;;;6237450;23;20074;-73
2023/02/24 03:06:30;;;;;;;17.30;4.22;;;;;;;;;;6234893;23;20103;-72
2023/02/24 03:09:31;;;;;;;13.80;4.05;;;;;;;;;;6235281;23;20056;-72
2023/02/24 03:12:07;;;;;;;16.42;4.20;;;;;;;;;;6233842;23;20095;-73
2023/02/24 03:14:43;;;;;;;18.33;4.30;;;;;;;;;;6235931;23;20027;-72
2023/02/24 03:17:15;;;;;;;11.50;3.75;;;;;;;;;;6237380;23;20107;-72
2023/02/24 03:19:58;;;;;;;12.90;4.57;;;;;;;;;;6237423;23;20078;-72
2023/02/24 03:22:39;;;;;;;11.88;3.63;;;;;;;;;;6236238;23;20548;-72
2023/02/24 03:25:13;;;;;;;15.43;4.18;;;;;;;;;;6237137;23;20433;-53
2023/02/24 03:27:49;;;;;;;9.85;3.58;;;;;;;;;;6236546;23;20095;-53
2023/02/24 03:30:29;;;;;;;9.88;3.53;;;;;;;;;;6235788;23;20031;-53
2023/02/24 03:33:00;;;;;;;9.70;3.65;;;;;;;;;;6235593;23;20024;-52
2023/02/24 03:35:37;;;;;;;8.95;2.83;;;;;;;;;;6236548;23;20091;-58
2023/02/24 03:38:05;;;;;;;13.35;4.10;;;;;;;;;;6237665;23;20126;-55
2023/02/24 03:40:42;;;;;;;9.75;3.72;;;;;;;;;;6234508;23;20514;-57
2023/02/24 03:43:12;;;;;;;9.70;3.40;;;;;;;;;;6236749;23;20479;-58
2023/02/24 03:45:46;;;;;;;11.07;3.35;;;;;;;;;;6236657;23;20059;-57
2023/02/24 03:48:13;;;;;;;10.27;3.10;;;;;;;;;;6236332;23;20491;-58
2023/02/24 03:50:48;;;;;;;8.35;3.30;;;;;;;;;;6236154;23;20516;-58
2023/02/24 03:53:29;;;;;;;7.53;2.70;;;;;;;;;;6238797;23;20456;-73
2023/02/24 03:56:29;;;;;;;8.50;2.88;;;;;;;;;;6236493;23;20030;-72
2023/02/24 03:59:11;;;;;;;8.32;2.72;;;;;;;;;;6202257;23;20026;-72
2023/02/24 04:01:49;;;;;;;9.65;2.35;;;;;;;;;;6231751;23;20020;-73
2023/02/24 04:04:26;;;;;;;7.07;2.30;;;;;;;;;;6235710;23;20051;-51
2023/02/24 04:07:22;;;;;;;5.93;2.00;;;;;;;;;;6233114;23;20089;-59
2023/02/24 04:09:55;;;;;;;3.42;1.80;;;;;;;;;;6234119;23;20383;-59
2023/02/24 04:12:31;;;;;;;3.30;1.85;;;;;;;;;;6233822;23;20020;-59
2023/02/24 04:14:59;;;;;;;1.73;1.48;;;;;;;;;;6235218;23;20381;-59
2023/02/24 04:17:38;;;;;;;3.20;1.60;;;;;;;;;;6235395;23;20020;-59
2023/02/24 04:20:15;;;;;;;3.45;1.48;;;;;;;;;;6235512;23;20103;-59
2023/02/24 04:22:51;;;;;;;2.30;1.42;;;;;;;;;;6232618;23;20479;-73
2023/02/24 04:25:23;;;;;;;4.30;1.70;;;;;;;;;;6235287;23;20042;-73
2023/02/24 04:27:58;;;;;;;2.72;1.63;;;;;;;;;;6235272;23;20380;-73
2023/02/24 04:30:28;;;;;;;3.13;1.23;;;;;;;;;;6233471;23;20151;-73
2023/02/24 04:32:55;;;;;;;3.13;1.40;;;;;;;;;;6233947;23;20642;-51
2023/02/24 04:35:30;;;;;;;5.10;1.00;;;;;;;;;;6236369;23;20034;-63
2023/02/24 04:37:57;;;;;;;2.78;1.05;;;;;;;;;;6235824;23;20021;-62
2023/02/24 04:40:31;;;;;;;2.15;1.15;;;;;;;;;;6233812;23;20086;-63
2023/02/24 04:42:58;;;;;;;3.08;1.13;;;;;;;;;;6234497;23;20048;-62
2023/02/24 04:45:26;;;;;;;1.25;0.95;;;;;;;;;;6234391;23;20034;-63
2023/02/24 04:48:02;;;;;;;2.10;1.10;;;;;;;;;;6235068;23;20027;-62
2023/02/24 04:50:34;;;;;;;1.45;0.85;;;;;;;;;;6235816;23;20089;-53
2023/02/24 04:53:12;;;;;;;1.17;0.80;;;;;;;;;;6235128;23;20107;-54
2023/02/24 04:55:41;;;;;;;1.50;0.77;;;;;;;;;;6233603;23;20071;-52
2023/02/24 04:58:19;;;;;;;0.98;0.82;;;;;;;;;;6234026;23;20534;-52
2023/02/24 05:00:47;;;;;;;0.85;0.70;;;;;;;;;;6234336;23;20096;-50
2023/02/24 05:03:26;;;;;;;2.45;0.80;;;;;;;;;;6233775;23;20031;-58
2023/02/24 05:06:07;;;;;;;0.70;0.60;;;;;;;;;;5880480;23;8200391;-58
2023/02/24 05:08:51;;;;;;;1.65;0.80;;;;;;;;;;6236927;23;20020;-58
2023/02/24 05:11:18;;;;;;;0.70;0.57;;;;;;;;;;6237231;23;20024;-58
2023/02/24 05:13:52;;;;;;;0.90;0.60;;;;;;;;;;6235496;23;20431;-59
2023/02/24 05:16:19;;;;;;;2.05;0.70;;;;;;;;;;6234171;23;20494;-56
2023/02/24 05:18:46;;;;;;;0.82;0.65;;;;;;;;;;6235593;23;20028;-55
2023/02/24 05:21:35;;;;;;;1.13;0.73;;;;;;;;;;6235904;23;20027;-57
2023/02/24 05:24:05;;;;;;;1.90;0.60;;;;;;;;;;6233036;23;20025;-57
2023/02/24 05:26:42;;;;;;;0.60;0.60;;;;;;;;;;6236714;23;20487;-56
2023/02/24 05:29:11;;;;;;;0.50;0.50;;;;;;;;;;6235211;23;20498;-48
2023/02/24 05:31:45;;;;;;;0.93;0.55;;;;;;;;;;6234960;23;20030;-56
2023/02/24 05:34:16;;;;;;;0.40;0.40;;;;;;;;;;6235901;23;20031;-55
2023/02/24 05:36:50;;;;;;;0.68;0.60;;;;;;;;;;6230652;23;20020;-58
2023/02/24 05:39:18;;;;;;;1.42;0.82;;;;;;;;;;6229809;23;20020;-56
2023/02/24 05:41:53;;;;;;;0.50;0.50;;;;;;;;;;6232584;23;20024;-58
2023/02/24 05:44:21;;;;;;;0.50;0.45;;;;;;;;;;6233842;23;20020;-55
2023/02/24 05:46:59;;;;;;;0.30;0.30;;;;;;;;;;6232448;23;20034;-63
2023/02/24 05:49:30;;;;;;;1.48;0.40;;;;;;;;;;6234393;23;20024;-63
2023/02/24 05:52:08;;;;;;;0.30;0.30;;;;;;;;;;6235466;23;20020;-63
2023/02/24 05:54:38;;;;;;;0.25;0.25;;;;;;;;;;6233762;23;20519;-62
2023/02/24 05:57:14;;;;;;;1.17;0.50;;;;;;;;;;6235097;23;20020;-55
2023/02/24 05:59:41;;;;;;;0.40;0.40;;;;;;;;;;6235971;23;20020;-63
2023/02/24 06:02:15;;;;;;;0.32;0.32;;;;;;;;;;6234111;23;20266;-63
2023/02/24 06:04:49;;;;;;;0.30;0.30;;;;;;;;;;6236146;23;20020;-63
2023/02/24 06:07:33;;;;;;;0.30;0.30;;;;;;;;;;6233608;23;20038;-64
2023/02/24 06:10:03;;;;;;;0.30;0.30;;;;;;;;;;6235309;23;20027;-63
2023/02/24 06:12:38;;;;;;;0.30;0.30;;;;;;;;;;6234889;23;20103;-62
2023/02/24 06:15:06;;;;;;;0.20;0.20;;;;;;;;;;6236302;23;20071;-72
2023/02/24 06:17:34;;;;;;;0.30;0.30;;;;;;;;;;6236237;23;20513;-72
2023/02/24 06:20:14;;;;;;;0.32;0.30;;;;;;;;;;6234594;23;20099;-72
2023/02/24 06:22:41;;;;;;;0.30;0.30;;;;;;;;;;6219972;23;20020;-72
2023/02/24 06:25:17;;;;;;;0.30;0.30;;;;;;;;;;6233762;23;20110;-48
2023/02/24 06:27:44;;;;;;;0.20;0.20;;;;;;;;;;6235702;23;20078;-62
2023/02/24 06:30:20;;;;;;;0.20;0.20;;;;;;;;;;6234891;23;20027;-62
2023/02/24 06:32:47;;;;;;;0.30;0.30;;;;;;;;;;6235858;23;20024;-62
2023/02/24 06:35:22;;;;;;;0.25;0.25;;;;;;;;;;6238142;23;20483;-62
2023/02/24 06:37:49;;;;;;;0.30;0.30;;;;;;;;;;6235270;23;20040;-62
2023/02/24 06:40:23;;;;;;;0.20;0.20;;;;;;;;;;6235160;23;20499;-62
2023/02/24 06:42:55;;;;;;;0.20;0.20;;;;;;;;;;6237201;23;20074;-72
2023/02/24 06:45:23;;;;;;;0.20;0.20;;;;;;;;;;6235752;23;20475;-72
2023/02/24 06:47:57;;;;;;;0.20;0.20;;;;;;;;;;6236841;23;20395;-72
2023/02/24 06:50:24;;;;;;;0.20;0.20;;;;;;;;;;6237038;23;20363;-72
2023/02/24 06:52:59;;;;;;;0.40;0.40;;;;;;;;;;6234100;23;20169;-56
2023/02/24 06:55:27;;;;;;;0.30;0.30;;;;;;;;;;6237203;23;20078;-56
2023/02/24 06:58:04;;;;;;;0.30;0.30;;;;;;;;;;6236674;23;20127;-63
2023/02/24 07:00:37;;;;;;;0.30;0.30;;;;;;;;;;6237661;23;20028;-63
2023/02/24 07:03:15;;;;;;;0.28;0.28;;;;;;;;;;6237723;23;20024;-63
2023/02/24 07:05:49;;;;;;;0.30;0.30;;;;;;;;;;6234848;23;20024;-63
2023/02/24 07:08:32;;;;;;;0.30;0.30;;;;;;;;;;6237794;23;20095;-63
2023/02/24 07:11:00;;;;;;;0.30;0.30;;;;;;;;;;6238051;23;20028;-72
2023/02/24 07:13:35;;;;;;;0.30;0.30;;;;;;;;;;6237261;23;20150;-72
2023/02/24 07:16:05;;;;;;;0.50;0.50;;;;;;;;;;6236657;23;20024;-73
2023/02/24 07:18:39;;;;;;;0.40;0.40;;;;;;;;;;6237735;23;20016;-73
2023/02/24 07:21:15;;;;;;;0.25;0.25;;;;;;;;;;6236627;23;20062;-72
2023/02/24 07:23:48;;;;;;;0.30;0.30;;;;;;;;;;6236664;23;20449;-56
2023/02/24 07:26:26;;;;;;;0.30;0.30;;;;;;;;;;6237442;23;20024;-72
2023/02/24 07:28:55;;;;;;;0.20;0.20;;;;;;;;;;6237976;23;20023;-72
2023/02/24 07:31:31;;;;;;;0.35;0.35;;;;;;;;;;6236931;23;20394;-72
2023/02/24 07:34:00;;;;;;;0.47;0.47;;;;;;;;;;6236760;23;20062;-72
2023/02/24 07:36:47;;;;;;;0.30;0.30;;;;;;;;;;6237217;23;20103;-72
2023/02/24 07:39:25;;;;;;;0.47;0.40;;;;;;;;;;6237449;23;20026;-62
2023/02/24 07:41:53;;;;;;;0.40;0.40;;;;;;;;;;6236286;23;20103;-63
2023/02/24 07:44:28;;;;;;;0.40;0.40;;;;;;;;;;6234813;23;20370;-63
2023/02/24 07:46:58;;;;;;;0.20;0.20;;;;;;;;;;6236116;23;20573;-61
2023/02/24 07:49:28;;;;;;;0.50;0.50;;;;;;;;;;6236445;23;20055;-63
2023/02/24 07:52:02;;;;;;;0.40;0.40;;;;;;;;;;6235316;23;20027;-63
2023/02/24 07:54:29;;;;;;;0.30;0.30;;;;;;;;;;6237007;23;20600;-72
2023/02/24 07:57:03;;;;;;;0.32;0.32;;;;;;;;;;6236718;23;20450;-71
2023/02/24 07:59:31;;;;;;;0.40;0.40;;;;;;;;;;6236439;23;20016;-71
2023/02/24 08:02:06;;;;;;;0.40;0.40;;;;;;;;;;6236897;23;20058;-71
2023/02/24 08:04:35;;;;;;;0.20;0.20;;;;;;;;;;6237317;23;20027;-72
2023/02/24 08:07:16;;;;;;;0.40;0.40;;;;;;;;;;6234242;23;20024;-71
2023/02/24 08:12:20;;;;;;;0.10;0.10;;;;;;;;;;6236731;23;20078;-73
2023/02/24 08:14:51;;;;;;;0.38;0.38;;;;;;;;;;6235207;23;20016;-75
2023/02/24 08:17:26;;;;;;;0.50;0.40;;;;;;;;;;6236403;23;20032;-74
2023/02/24 08:22:50;;;;;;;0.30;0.30;;;;;;;;;;6235129;23;20024;-57
2023/02/24 08:25:34;;;;;;;;;;;;;;;;;;6237582;23;20034;-58
2023/02/24 08:28:04;;;;;;;0.30;0.30;;;;;;;;;;6235858;23;19994;-56
2023/02/24 08:30:43;;;;;;;0.30;0.30;;;;;;;;;;6236637;23;20071;-57
2023/02/24 08:33:18;;;;;;;0.30;0.30;;;;;;;;;;6235973;23;20086;-57
2023/02/24 08:36:00;;;;;;;0.40;0.40;;;;;;;;;;6237830;23;20475;-56
2023/02/24 08:38:38;;;;;;;0.30;0.30;;;;;;;;;;6237429;23;20067;-74
2023/02/24 08:41:16;;;;;;;;;;;;;;;;;;6237944;23;20054;-74
2023/02/24 08:43:45;;;;;;;0.20;0.20;;;;;;;;;;6235198;23;19915;-75
2023/02/24 08:46:24;;;;;;;0.52;0.50;;;;;;;;;;6235725;23;20031;-74
2023/02/24 08:48:59;;;;;;;0.20;0.20;;;;;;;;;;6236587;23;20467;-62
2023/02/24 08:51:29;;;;;;;0.30;0.30;;;;;;;;;;6236232;23;20377;-58
2023/02/24 08:54:09;;;;;;;0.40;0.40;;;;;;;;;;6235976;23;20099;-59
2023/02/24 08:56:42;;;;;;;0.40;0.40;;;;;;;;;;6236538;23;20532;-57
2023/02/24 08:59:36;;;;;;;;;;;;;;;;;;6236638;23;20028;-57
2023/02/24 09:02:23;;;;;;;0.30;0.30;;;;;;;;;;6235534;23;19922;-55
2023/02/24 09:04:59;;;;;;;0.50;0.50;;;;;;;;;;6237171;23;20051;-62
2023/02/24 09:07:34;;;;;;;0.32;0.32;;;;;;;;;;6233359;23;20122;-62
2023/02/24 09:10:16;;;;;;;0.30;0.30;;;;;;;;;;6236103;23;20107;-61
2023/02/24 09:12:44;;;;;;;1.05;0.50;;;;;;;;;;6236030;23;20442;-62
2023/02/24 09:15:19;;;;;;;0.40;0.40;;;;;;;;;;6236779;23;20082;-57
2023/02/24 09:18:00;;;;;;;0.40;0.40;;;;;;;;;;6237131;23;20027;-56
2023/02/24 09:23:28;;;;;;;0.63;0.60;;;;;;;;;;6235395;23;20016;-54
2023/02/24 09:26:09;;;;;;;0.98;0.50;;;;;;;;;;6237368;23;20095;-49
2023/02/24 09:28:47;;;;;;;0.43;0.43;;;;;;;;;;6233952;23;20034;-51
2023/02/24 09:31:22;;;;;;;0.35;0.35;;;;;;;;;;6235921;23;20100;-49
2023/02/24 09:33:51;;;;;;;1.00;0.50;;;;;;;;;;6236296;23;20024;-71
2023/02/24 09:36:28;;;;;;;0.75;0.63;;;;;;;;;;6235613;23;20099;-72
2023/02/24 09:41:55;;;;;;;1.02;0.50;;;;;;;;;;6235946;23;20067;-72
2023/02/24 09:44:26;;;;;;;0.88;0.73;;;;;;;;;;6235361;23;20016;-56
2023/02/24 09:47:07;;;;;;;1.23;0.60;;;;;;;;;;6235521;23;20470;-54
2023/02/24 09:49:47;;;;;;;0.50;0.50;;;;;;;;;;6235899;23;20024;-52
2023/02/24 09:52:36;;;;;;;0.52;0.50;;;;;;;;;;6234907;23;20020;-51
2023/02/24 09:55:23;;;;;;;1.25;1.15;;;;;;;;;;6235681;23;20063;-52
2023/02/24 09:58:46;;;;;;;0.70;0.70;;;;;;;;;;6234900;23;20031;-50
2023/02/24 10:01:29;;;;;;;0.95;0.73;;;;;;;;;;6233582;23;20035;-54
2023/02/24 10:04:26;;;;;;;0.47;0.47;;;;;;;;;;6235566;23;20039;-60
2023/02/24 10:07:09;;;;;;;0.45;0.45;;;;;;;;;;6232443;23;20312;-60
2023/02/24 10:09:49;;;;;;;0.60;0.60;;;;;;;;;;6238005;23;20100;-59
2023/02/24 10:12:17;;;;;;;0.30;0.30;;;;;;;;;;6236749;23;20126;-59
2023/02/24 10:15:17;;;;;;;0.50;0.50;;;;;;;;;;6238478;23;20075;-74
2023/02/24 10:17:46;;;;;;;0.50;0.50;;;;;;;;;;6236799;23;20038;-58
2023/02/24 10:20:29;;;;;;;0.57;0.47;;;;;;;;;;6238249;23;20119;-59
2023/02/24 10:23:08;;;;;;;0.77;0.40;;;;;;;;;;6237283;23;20024;-56
2023/02/24 10:25:41;;;;;;;0.40;0.40;;;;;;;;;;6237361;23;20107;-58
2023/02/24 10:28:34;;;;;;;0.28;0.28;;;;;;;;;;6237343;23;20024;-56
2023/02/24 10:31:08;;;;;;;0.45;0.45;;;;;;;;;;6238537;23;20024;-59
2023/02/24 10:33:44;;;;;;;0.88;0.45;;;;;;;;;;6237243;23;20020;-58
2023/02/24 10:36:17;;;;;;;0.40;0.40;;;;;;;;;;6238239;23;20024;-58
2023/02/24 10:38:54;;;;;;;0.40;0.40;;;;;;;;;;6236456;23;20473;-58
2023/02/24 10:41:28;;;;;;;0.40;0.40;;;;;;;;;;6238890;23;20027;-62
2023/02/24 10:44:03;;;;;;;0.30;0.30;;;;;;;;;;6237627;23;20020;-52
2023/02/24 10:46:35;;;;;;;0.30;0.30;;;;;;;;;;6237232;23;20020;-52
2023/02/24 10:49:15;;;;;;;0.38;0.38;;;;;;;;;;6237304;23;20024;-53
2023/02/24 10:51:46;;;;;;;0.60;0.50;;;;;;;;;;6237575;23;20024;-55
2023/02/24 10:54:41;;;;;;;;;;;;;;;;;;6239564;23;20497;-55
2023/02/24 10:58:04;;;;;;;0.50;0.50;;;;;;;;;;6237355;23;19922;-55
2023/02/24 11:00:50;;;;;;;0.57;0.57;;;;;;;;;;6238553;23;20024;-57
2023/02/24 11:03:34;;;;;;;0.88;0.43;;;;;;;;;;6237567;23;20095;-53
2023/02/24 11:09:33;;;;;;;0.40;0.40;;;;;;;;;;6236863;23;20028;-54
2023/02/24 11:18:16;;;;;;;0.75;0.75;;;;;;;;;;6233691;23;20484;-75
2023/02/24 11:20:52;;;;;;;0.82;0.82;;;;;;;;;;6235947;23;20458;-75
2023/02/24 11:23:22;;;;;;;1.20;0.63;;;;;;;;;;6237319;23;20116;-75
2023/02/24 11:25:57;;;;;;;0.63;0.63;;;;;;;;;;6236495;23;20062;-75
2023/02/24 11:28:50;;;;;;;0.75;0.75;;;;;;;;;;6236803;23;20047;-60
2023/02/24 11:31:26;;;;;;;0.80;0.80;;;;;;;;;;6237140;23;20444;-58
2023/02/24 11:34:05;;;;;;;0.52;0.52;;;;;;;;;;6236154;23;20487;-59
2023/02/24 11:36:53;;;;;;;0.60;0.60;;;;;;;;;;6237738;23;20048;-60
2023/02/24 11:39:34;;;;;;;0.60;0.60;;;;;;;;;;6238249;23;20503;-63
2023/02/24 11:42:04;;;;;;;0.60;0.60;;;;;;;;;;6235739;23;20020;-63
2023/02/24 11:44:55;;;;;;;1.00;0.95;;;;;;;;;;6237159;23;20103;-63
2023/02/24 11:47:27;;;;;;;0.85;0.82;;;;;;;;;;6236204;23;20107;-63
2023/02/24 11:50:42;;;;;;;1.33;1.00;;;;;;;;;;6236958;23;20090;-63
2023/02/24 11:53:27;;;;;;;0.85;0.85;;;;;;;;;;6143334;23;20028;-62
2023/02/24 11:56:10;;;;;;;0.70;0.70;;;;;;;;;;6143657;23;20023;-55
2023/02/24 11:58:48;;;;;;;1.20;1.10;;;;;;;;;;6214575;23;20063;-57
2023/02/24 12:01:25;;;;;;;1.88;1.05;;;;;;;;;;6236402;23;20027;-54
2023/02/24 12:04:02;;;;;;;0.90;0.82;;;;;;;;;;6234545;23;20074;-57
2023/02/24 12:06:56;;;;;;;0.63;0.63;;;;;;;;;;6235628;23;20020;-57
2023/02/24 12:09:35;;;;;;;1.23;0.85;;;;;;;;;;6238199;23;20020;-50
2023/02/24 18:32:42;;;;;;;4.80;3.22;;;;;;;;;;6228630;23;20078;-57
2023/02/24 18:35:20;;;;;;;5.88;3.30;;;;;;;;;;6233447;23;20109;-73
2023/02/24 18:37:57;;;;;;;6.63;3.70;;;;;;;;;;6233299;23;20024;-53
2023/02/24 18:40:27;;;;;;;5.13;3.20;;;;;;;;;;6233800;23;20103;-52
2023/02/24 18:43:01;;;;;;;5.07;3.63;;;;;;;;;;6229720;23;20140;-55
2023/02/24 18:45:28;;;;;;;4.60;3.20;;;;;;;;;;6232939;23;20028;-53
2023/02/24 18:47:55;;;;;;;4.97;3.33;;;;;;;;;;6233459;23;20016;-50
2023/02/24 18:50:29;;;;;;;6.50;3.47;;;;;;;;;;6233022;23;20959;-52
2023/02/24 18:52:56;;;;;;;4.47;2.97;;;;;;;;;;6232880;23;20023;-58
2023/02/24 18:55:30;;;;;;;5.72;3.33;;;;;;;;;;6232944;23;20593;-58
2023/02/24 18:57:57;;;;;;;7.65;3.30;;;;;;;;;;6233630;23;20360;-59
2023/02/24 19:00:24;;;;;;;6.15;3.47;;;;;;;;;;6233034;23;20602;-57
2023/02/24 19:02:58;;;;;;;7.07;3.05;;;;;;;;;;6233313;23;20548;-58
2023/02/24 19:05:25;;;;;;;3.63;2.50;;;;;;;;;;6230446;23;20024;-61
2023/02/24 19:08:05;;;;;;;9.52;2.83;;;;;;;;;;6232560;23;20585;-57
2023/02/24 19:10:32;;;;;;;5.22;2.80;;;;;;;;;;6230890;23;20110;-58
2023/02/24 19:13:07;;;;;;;4.07;3.00;;;;;;;;;;6232990;23;20024;-62
2023/02/24 19:15:35;;;;;;;4.90;3.20;;;;;;;;;;6234114;23;20024;-63
2023/02/24 19:18:02;;;;;;;17.58;14.85;;;;;;;;;;6233064;23;20031;-63
2023/02/24 19:20:36;;;;;;;5.68;3.63;;;;;;;;;;6206672;23;20495;-63
2023/02/24 19:23:04;;;;;;;4.43;3.15;;;;;;;;;;6232950;23;20024;-63
2023/02/24 19:25:38;;;;;;;4.22;2.08;;;;;;;;;;6234553;23;20038;-63
2023/02/24 19:28:05;;;;;;;2.83;2.08;;;;;;;;;;6232274;23;20024;-63
2023/02/24 19:30:32;;;;;;;4.53;2.13;;;;;;;;;;6233097;23;20026;-57
2023/02/24 19:33:13;;;;;;;3.92;2.22;;;;;;;;;;6231125;23;20070;-63
2023/02/24 19:35:41;;;;;;;7.90;2.60;;;;;;;;;;6232504;23;20020;-64
2023/02/24 19:38:20;;;;;;;3.00;1.98;;;;;;;;;;6234423;23;20372;-63
2023/02/24 19:40:48;;;;;;;3.22;1.75;;;;;;;;;;6232174;23;20426;-63
2023/02/24 19:43:22;;;;;;;4.68;1.95;;;;;;;;;;6230915;23;20028;-63
2023/02/24 19:45:49;;;;;;;7.30;2.17;;;;;;;;;;6234134;23;20020;-63
2023/02/24 19:48:16;;;;;;;4.10;1.85;;;;;;;;;;6234907;23;20529;-63
2023/02/24 19:50:50;;;;;;;4.55;1.70;;;;;;;;;;6231941;23;20051;-63
2023/02/24 19:53:17;;;;;;;3.78;1.73;;;;;;;;;;6233634;23;20061;-63
2023/02/24 19:55:48;;;;;;;4.30;1.80;;;;;;;;;;6233986;23;20436;-63
2023/02/24 19:58:22;;;;;;;3.00;1.50;;;;;;;;;;6232634;23;20039;-62
2023/02/24 20:00:49;;;;;;;6.93;2.10;;;;;;;;;;6231931;23;20525;-63
2023/02/24 20:03:17;;;;;;;3.03;1.50;;;;;;;;;;6233712;23;20024;-62
2023/02/24 20:05:51;;;;;;;7.05;2.17;;;;;;;;;;6232944;23;20019;-62
2023/02/24 20:08:18;;;;;;;3.95;1.90;;;;;;;;;;6233365;23;20031;-65
2023/02/24 20:10:59;;;;;;;3.95;1.77;;;;;;;;;;6233659;23;20438;-65
2023/02/24 20:13:26;;;;;;;6.15;2.05;;;;;;;;;;6233208;23;20024;-62
2023/02/24 20:16:07;;;;;;;5.60;2.00;;;;;;;;;;6234421;23;20024;-77
2023/02/24 20:18:41;;;;;;;8.85;1.90;;;;;;;;;;6233309;23;20309;-75
2023/02/24 20:21:09;;;;;;;7.30;1.83;;;;;;;;;;6232375;23;20072;-75
2023/02/24 20:23:37;;;;;;;4.43;2.28;;;;;;;;;;6232263;23;20108;-72
2023/02/24 20:26:15;;;;;;;5.20;1.95;;;;;;;;;;6234331;23;20056;-63
2023/02/24 20:28:49;;;;;;;4.10;1.90;;;;;;;;;;6232558;23;20101;-64
2023/02/24 20:31:25;;;;;;;6.68;2.05;;;;;;;;;;6233276;23;20499;-58
2023/02/24 20:34:07;;;;;;;3.70;1.80;;;;;;;;;;6226786;23;20383;-58
2023/02/24 20:36:35;;;;;;;2.75;1.77;;;;;;;;;;6233256;23;20523;-58
2023/02/24 20:39:12;;;;;;;4.72;2.20;;;;;;;;;;6233366;23;20103;-58
2023/02/24 20:41:39;;;;;;;3.58;1.80;;;;;;;;;;6232040;23;20107;-59
2023/02/24 20:44:07;;;;;;;6.07;1.90;;;;;;;;;;6231450;23;20436;-56
2023/02/24 20:46:41;;;;;;;4.20;1.80;;;;;;;;;;6233541;23;20024;-62
2023/02/24 20:49:08;;;;;;;;;;;;;;;;;;6233959;23;20549;-62
2023/02/24 20:51:42;;;;;;;3.95;1.65;;;;;;;;;;6229969;23;20341;-62
2023/02/24 20:54:10;;;;;;;3.60;1.45;;;;;;;;;;6232196;23;20024;-62
2023/02/24 20:56:44;;;;;;;7.60;1.45;;;;;;;;;;6232778;23;20024;-64
2023/02/24 20:59:13;;;;;;;5.68;1.90;;;;;;;;;;6233086;23;20047;-58
2023/02/24 21:01:48;;;;;;;3.03;1.60;;;;;;;;;;6233155;23;20111;-58
2023/02/24 21:04:16;;;;;;;3.70;1.50;;;;;;;;;;6232767;23;20461;-58
2023/02/24 21:06:45;;;;;;;2.45;1.65;;;;;;;;;;6233250;23;20352;-57
2023/02/24 21:09:19;;;;;;;4.18;1.42;;;;;;;;;;6231543;23;20491;-59
2023/02/24 21:11:46;;;;;;;2.90;0.82;;;;;;;;;;6232840;23;20023;-59
2023/02/24 21:14:21;;;;;;;4.63;1.20;;;;;;;;;;6233941;23;20102;-74
2023/02/24 21:16:48;;;;;;;4.43;1.52;;;;;;;;;;6230997;23;20110;-77
2023/02/24 21:19:16;;;;;;;3.85;1.20;;;;;;;;;;6233182;23;20024;-74
2023/02/24 21:21:50;;;;;;;2.95;1.20;;;;;;;;;;6233245;23;20051;-77
2023/02/24 21:24:17;;;;;;;2.28;0.88;;;;;;;;;;6233284;23;20028;-59
2023/02/24 21:26:51;;;;;;;4.95;1.00;;;;;;;;;;6233011;23;20028;-59
2023/02/24 21:29:18;;;;;;;2.78;0.95;;;;;;;;;;6232621;23;20139;-60
2023/02/24 21:31:45;;;;;;;3.67;1.00;;;;;;;;;;6232046;22;20020;-58
2023/02/24 21:34:26;;;;;;;1.88;1.00;;;;;;;;;;6231681;23;20028;-56
2023/02/24 21:37:00;;;;;;;1.10;0.75;;;;;;;;;;6232474;23;20446;-56
2023/02/24 21:39:34;;;;;;;2.65;1.02;;;;;;;;;;6232637;23;20487;-59
2023/02/24 21:42:01;;;;;;;1.70;0.98;;;;;;;;;;6229861;23;20024;-64
2023/02/24 21:44:28;;;;;;;2.42;0.90;;;;;;;;;;6233363;23;20065;-63
2023/02/24 21:47:02;;;;;;;1.85;1.25;;;;;;;;;;6231749;23;20020;-63
2023/02/24 21:49:36;;;;;;;2.58;1.08;;;;;;;;;;6232447;23;20574;-64
2023/02/24 21:52:09;;;;;;;2.42;0.88;;;;;;;;;;6231148;23;20016;-77
2023/02/24 21:54:43;;;;;;;3.83;1.30;;;;;;;;;;6231653;23;20495;-64
2023/02/24 21:57:11;;;;;;;2.58;1.10;;;;;;;;;;6232898;23;20028;-64
2023/02/24 21:59:45;;;;;;;3.22;1.00;;;;;;;;;;6233547;23;20024;-64
2023/02/24 22:02:15;;;;;;;2.13;0.80;;;;;;;;;;6232293;23;20107;-65
2023/02/24 22:04:50;;;;;;;4.07;0.98;;;;;;;;;;6232527;23;20696;-64
2023/02/24 22:07:18;;;;;;;4.38;1.15;;;;;;;;;;6234173;23;20030;-65
2023/02/24 22:09:45;;;;;;;3.33;1.15;;;;;;;;;;6233202;23;20024;-60
2023/02/24 22:12:19;;;;;;;2.17;1.08;;;;;;;;;;6233594;23;20525;-58